Time,TemperatureF,DewpointF,PressureIn,WindDirection,WindDirectionDegrees,WindSpeedMPH,WindSpeedGustMPH,Humidity,HourlyPrecipIn,Conditions,Clouds,dailyrainin,SoftwareType,DateUTC
2014-03-19 00:00:00,43.5,39.6,30.07,North,0,0.2,0.2,86,0.00,,,0.00,WUHU216HW,2014-03-19 07:00:00,
2014-03-19 00:05:00,43.5,39.6,30.07,North,0,0.2,0.2,86,0.00,,,0.00,WUHU216HW,2014-03-19 07:05:00,
2014-03-19 00:30:00,43.5,39.6,30.05,ENE,68,1.1,1.1,86,0.00,,,0.00,WUHU216HW,2014-03-19 07:30:00,
2014-03-19 00:35:00,43.5,39.6,30.05,ENE,68,1.1,1.1,86,0.00,,,0.00,WUHU216HW,2014-03-19 07:35:00,
2014-03-19 01:00:00,43.5,39.3,30.05,ESE,113,1.3,1.3,85,0.00,,,0.00,WUHU216HW,2014-03-19 08:00:00,
2014-03-19 01:05:00,43.5,39.3,30.05,ESE,113,1.3,1.3,85,0.00,,,0.00,WUHU216HW,2014-03-19 08:05:00,
2014-03-19 01:30:00,43.7,39.5,30.03,ENE,68,1.8,1.8,85,0.00,,,0.00,WUHU216HW,2014-03-19 08:30:00,
2014-03-19 01:35:00,43.7,39.5,30.03,ENE,68,1.8,1.8,85,0.00,,,0.00,WUHU216HW,2014-03-19 08:35:00,
2014-03-19 02:00:00,43.7,39.5,30.03,SSW,203,0.0,0.0,85,0.00,,,0.00,WUHU216HW,2014-03-19 09:00:00,
2014-03-19 02:05:00,43.7,39.5,30.03,SSW,203,0.0,0.0,85,0.00,,,0.00,WUHU216HW,2014-03-19 09:05:00,
2014-03-19 02:30:00,43.5,39.6,30.03,SSW,203,0.0,0.0,86,0.00,,,0.00,WUHU216HW,2014-03-19 09:30:00,
2014-03-19 02:35:00,43.5,39.6,30.03,SSW,203,0.0,0.0,86,0.00,,,0.00,WUHU216HW,2014-03-19 09:35:00,
2014-03-19 03:00:00,43.1,39.5,30.01,West,270,0.0,0.0,87,0.00,,,0.00,WUHU216HW,2014-03-19 10:00:00,
2014-03-19 03:05:00,43.1,39.5,30.01,West,270,0.0,0.0,87,0.00,,,0.00,WUHU216HW,2014-03-19 10:05:00,
2014-03-19 03:30:00,43.1,39.5,30.00,South,180,1.8,1.8,87,0.00,,,0.00,WUHU216HW,2014-03-19 10:30:00,
2014-03-19 03:35:00,43.1,39.5,30.00,South,180,1.8,1.8,87,0.00,,,0.00,WUHU216HW,2014-03-19 10:35:00,
2014-03-19 04:00:00,43.1,39.5,29.99,ESE,113,0.0,0.0,87,0.00,,,0.00,WUHU216HW,2014-03-19 11:00:00,
2014-03-19 04:05:00,43.1,39.5,29.99,ESE,113,0.0,0.0,87,0.00,,,0.00,WUHU216HW,2014-03-19 11:05:00,
2014-03-19 04:30:00,43.1,39.8,29.98,ENE,68,0.0,0.0,88,0.00,,,0.00,WUHU216HW,2014-03-19 11:30:00,
2014-03-19 04:35:00,43.1,39.8,29.98,ENE,68,0.0,0.0,88,0.00,,,0.00,WUHU216HW,2014-03-19 11:35:00,
2014-03-19 04:59:00,42.8,39.5,29.97,WNW,293,0.0,0.0,88,0.00,,,0.00,WUHU216HW,2014-03-19 11:59:00,
2014-03-19 05:05:00,42.8,39.5,29.97,WNW,293,0.0,0.0,88,0.00,,,0.00,WUHU216HW,2014-03-19 12:05:00,
2014-03-19 05:30:00,43.0,39.7,29.96,East,90,0.0,0.0,88,0.00,,,0.00,WUHU216HW,2014-03-19 12:30:00,
2014-03-19 05:35:00,43.0,39.7,29.96,East,90,0.0,0.0,88,0.00,,,0.00,WUHU216HW,2014-03-19 12:35:00,
2014-03-19 06:00:00,43.0,39.7,29.95,ENE,68,0.0,0.0,88,0.00,,,0.00,WUHU216HW,2014-03-19 13:00:00,
2014-03-19 06:05:00,43.0,39.7,29.95,ENE,68,0.0,0.0,88,0.00,,,0.00,WUHU216HW,2014-03-19 13:05:00,
2014-03-19 06:09:00,43.0,39.7,29.95,ENE,68,0.0,0.0,88,0.00,,,0.00,WUHU216HW,2014-03-19 13:09:00,
2014-03-19 06:30:00,43.1,39.8,29.95,ENE,68,0.4,0.4,88,0.00,,,0.00,WUHU216HW,2014-03-19 13:30:00,
2014-03-19 06:35:00,43.1,39.8,29.95,ENE,68,0.4,0.4,88,0.00,,,0.00,WUHU216HW,2014-03-19 13:35:00,
2014-03-19 06:59:00,43.0,39.7,29.95,NNE,23,0.0,0.0,88,0.00,,,0.00,WUHU216HW,2014-03-19 13:59:00,
2014-03-19 07:04:00,43.0,39.7,29.95,NNE,23,0.0,0.0,88,0.00,,,0.00,WUHU216HW,2014-03-19 14:04:00,
2014-03-19 07:30:00,42.8,39.7,29.94,ESE,113,2.2,2.2,89,0.00,,,0.00,WUHU216HW,2014-03-19 14:30:00,
2014-03-19 07:35:00,42.8,39.7,29.94,ESE,113,2.2,2.2,89,0.00,,,0.00,WUHU216HW,2014-03-19 14:35:00,
2014-03-19 07:59:00,43.0,39.9,29.94,ENE,68,0.7,0.7,89,0.00,,,0.00,WUHU216HW,2014-03-19 14:59:00,
2014-03-19 08:05:00,43.0,39.9,29.94,ENE,68,0.7,0.7,89,0.00,,,0.00,WUHU216HW,2014-03-19 15:05:00,
2014-03-19 08:09:00,43.0,39.9,29.94,ENE,68,0.7,0.7,89,0.00,,,0.00,WUHU216HW,2014-03-19 15:09:00,
2014-03-19 08:30:00,43.0,39.7,29.94,NE,45,1.6,1.6,88,0.00,,,0.00,WUHU216HW,2014-03-19 15:30:00,
2014-03-19 08:35:00,43.0,39.7,29.94,NE,45,1.6,1.6,88,0.00,,,0.00,WUHU216HW,2014-03-19 15:35:00,
2014-03-19 09:00:00,42.8,39.5,29.94,ESE,113,3.4,3.4,88,0.00,,,0.00,WUHU216HW,2014-03-19 16:00:00,
2014-03-19 09:05:00,42.8,39.5,29.94,ESE,113,3.4,3.4,88,0.00,,,0.00,WUHU216HW,2014-03-19 16:05:00,
2014-03-19 09:30:00,42.8,39.5,29.93,SE,135,3.4,3.4,88,0.00,,,0.00,WUHU216HW,2014-03-19 16:30:00,
2014-03-19 09:35:00,42.8,39.5,29.93,SE,135,3.4,3.4,88,0.00,,,0.00,WUHU216HW,2014-03-19 16:35:00,
2014-03-19 09:59:00,42.8,39.5,29.93,ENE,68,2.0,2.0,88,0.00,,,0.00,WUHU216HW,2014-03-19 16:59:00,
2014-03-19 10:05:00,42.8,39.5,29.93,SSW,203,0.9,2.0,88,0.00,,,0.00,WUHU216HW,2014-03-19 17:05:00,
2014-03-19 10:09:00,42.8,39.5,29.93,SSW,203,0.9,0.9,88,0.00,,,0.00,WUHU216HW,2014-03-19 17:09:00,
2014-03-19 10:30:00,43.0,39.7,29.93,SSW,203,3.1,3.1,88,0.00,,,0.00,WUHU216HW,2014-03-19 17:30:00,
2014-03-19 10:35:00,43.0,39.7,29.93,SSW,203,3.1,3.1,88,0.00,,,0.00,WUHU216HW,2014-03-19 17:35:00,
2014-03-19 10:59:00,42.8,39.5,29.93,SSE,158,0.0,0.0,88,0.00,,,0.00,WUHU216HW,2014-03-19 17:59:00,
2014-03-19 11:04:00,42.8,39.5,29.93,SSE,158,0.0,0.0,88,0.00,,,0.00,WUHU216HW,2014-03-19 18:04:00,
2014-03-19 11:29:00,43.0,39.7,29.93,WSW,248,0.4,0.4,88,0.00,,,0.00,WUHU216HW,2014-03-19 18:29:00,
2014-03-19 11:34:00,43.0,39.7,29.93,WSW,248,0.4,0.4,88,0.00,,,0.00,WUHU216HW,2014-03-19 18:34:00,
2014-03-19 11:59:00,43.0,39.9,29.93,SSW,203,6.5,6.5,89,0.00,,,0.00,WUHU216HW,2014-03-19 18:59:00,
2014-03-19 12:04:00,43.0,39.9,29.93,SSW,203,6.5,6.5,89,0.00,,,0.00,WUHU216HW,2014-03-19 19:04:00,
2014-03-19 12:29:00,43.0,39.7,29.92,SSW,203,2.5,2.5,88,0.00,,,0.00,WUHU216HW,2014-03-19 19:29:00,
2014-03-19 12:34:00,43.0,39.7,29.92,SSW,203,2.5,2.5,88,0.00,,,0.00,WUHU216HW,2014-03-19 19:34:00,
2014-03-19 13:00:00,43.1,40.0,29.94,SSW,203,0.4,0.4,89,0.00,,,0.00,WUHU216HW,2014-03-19 20:00:00,
2014-03-19 13:05:00,43.1,40.0,29.94,SSW,203,0.4,0.4,89,0.00,,,0.00,WUHU216HW,2014-03-19 20:05:00,
2014-03-19 13:30:00,41.9,38.6,29.93,ESE,113,0.0,0.0,88,0.00,,,0.00,WUHU216HW,2014-03-19 20:30:00,
2014-03-19 13:34:00,41.9,38.6,29.93,ESE,113,0.0,0.0,88,0.00,,,0.00,WUHU216HW,2014-03-19 20:34:00,
2014-03-19 13:59:00,41.5,37.9,29.93,SSE,158,0.9,0.9,87,0.00,,,0.00,WUHU216HW,2014-03-19 20:59:00,
2014-03-19 14:05:00,41.5,37.9,29.93,SSE,158,0.9,0.9,87,0.00,,,0.00,WUHU216HW,2014-03-19 21:05:00,
2014-03-19 14:30:00,41.5,37.9,29.94,SE,135,0.0,0.0,87,0.00,,,0.00,WUHU216HW,2014-03-19 21:30:00,
2014-03-19 14:35:00,41.5,37.9,29.94,SE,135,0.0,0.0,87,0.00,,,0.00,WUHU216HW,2014-03-19 21:35:00,
2014-03-19 15:00:00,41.3,37.7,29.95,NW,315,0.9,0.9,87,0.00,,,0.00,WUHU216HW,2014-03-19 22:00:00,
2014-03-19 15:05:00,41.3,37.7,29.95,NW,315,0.9,0.9,87,0.00,,,0.00,WUHU216HW,2014-03-19 22:05:00,
2014-03-19 15:30:00,40.6,37.0,29.97,South,180,1.1,1.1,87,0.00,,,0.00,WUHU216HW,2014-03-19 22:30:00,
2014-03-19 15:35:00,40.6,37.0,29.97,South,180,1.1,1.1,87,0.00,,,0.00,WUHU216HW,2014-03-19 22:35:00,
2014-03-19 16:00:00,40.1,36.5,29.99,North,0,1.1,1.1,87,0.00,,,0.00,WUHU216HW,2014-03-19 23:00:00,
2014-03-19 16:04:00,40.1,36.5,29.99,North,0,1.1,1.1,87,0.00,,,0.00,WUHU216HW,2014-03-19 23:04:00,
2014-03-19 16:30:00,39.0,35.4,29.98,NNE,23,0.4,0.4,87,0.00,,,0.00,WUHU216HW,2014-03-19 23:30:00,
2014-03-19 16:35:00,39.0,35.4,29.98,NNE,23,0.4,0.4,87,0.00,,,0.00,WUHU216HW,2014-03-19 23:35:00,
2014-03-19 17:00:00,38.5,34.7,29.98,ESE,113,0.9,0.9,86,0.00,,,0.00,WUHU216HW,2014-03-20 00:00:00,
2014-03-19 17:05:00,38.5,34.7,29.98,ESE,113,0.9,0.9,86,0.00,,,0.00,WUHU216HW,2014-03-20 00:05:00,
2014-03-19 17:30:00,38.1,34.5,29.99,NNW,338,0.0,0.0,87,0.00,,,0.00,WUHU216HW,2014-03-20 00:30:00,
2014-03-19 17:35:00,38.1,34.5,29.99,NNW,338,0.0,0.0,87,0.00,,,0.00,WUHU216HW,2014-03-20 00:35:00,
2014-03-19 18:00:00,37.7,34.1,30.00,SSW,203,2.2,2.2,87,0.00,,,0.00,WUHU216HW,2014-03-20 01:00:00,
2014-03-19 18:05:00,37.7,34.1,30.00,SSW,203,2.2,2.2,87,0.00,,,0.00,WUHU216HW,2014-03-20 01:05:00,
2014-03-19 18:29:00,37.7,34.1,30.01,SW,225,0.0,0.0,87,0.00,,,0.00,WUHU216HW,2014-03-20 01:29:00,
2014-03-19 18:37:00,37.7,34.1,30.01,SW,225,0.0,0.0,87,0.00,,,0.00,WUHU216HW,2014-03-20 01:37:00,
2014-03-19 19:00:00,37.6,34.0,30.01,ESE,113,0.0,0.0,87,0.00,,,0.00,WUHU216HW,2014-03-20 02:00:00,
2014-03-19 19:05:00,37.6,34.0,30.01,ESE,113,0.0,0.0,87,0.00,,,0.00,WUHU216HW,2014-03-20 02:05:00,
2014-03-19 19:30:00,37.2,33.9,30.02,NW,315,0.0,0.0,88,0.00,,,0.00,WUHU216HW,2014-03-20 02:30:00,
2014-03-19 19:34:00,37.2,33.9,30.02,NW,315,0.0,0.0,88,0.00,,,0.00,WUHU216HW,2014-03-20 02:34:00,
2014-03-19 20:00:00,37.0,33.7,30.03,WNW,293,0.0,0.0,88,0.00,,,0.00,WUHU216HW,2014-03-20 03:00:00,
2014-03-19 20:05:00,37.0,33.7,30.03,WNW,293,0.0,0.0,88,0.00,,,0.00,WUHU216HW,2014-03-20 03:05:00,
2014-03-19 20:30:00,37.2,34.2,30.04,SW,225,0.0,0.0,89,0.00,,,0.00,WUHU216HW,2014-03-20 03:30:00,
2014-03-19 20:35:00,37.2,34.2,30.04,SW,225,0.0,0.0,89,0.00,,,0.00,WUHU216HW,2014-03-20 03:35:00,
2014-03-19 21:00:00,37.0,34.0,30.05,SW,225,0.0,0.0,89,0.00,,,0.00,WUHU216HW,2014-03-20 04:00:00,
2014-03-19 21:01:00,37.0,34.0,30.05,SW,225,0.0,0.0,89,0.00,,,0.00,WUHU216HW,2014-03-20 04:01:00,
2014-03-19 21:02:00,37.0,34.0,30.05,SW,225,0.0,0.0,89,0.00,,,0.00,WUHU216HW,2014-03-20 04:02:00,
2014-03-19 21:07:00,37.0,34.0,30.05,SW,225,0.0,0.0,89,0.00,,,0.00,WUHU216HW,2014-03-20 04:07:00,
2014-03-19 21:29:00,36.8,33.8,30.05,WNW,293,0.0,0.0,89,0.00,,,0.00,WUHU216HW,2014-03-20 04:29:00,
2014-03-19 21:34:00,36.8,33.8,30.05,WNW,293,0.0,0.0,89,0.00,,,0.00,WUHU216HW,2014-03-20 04:34:00,
2014-03-19 21:59:00,36.3,33.3,30.06,NW,315,0.0,0.0,89,0.00,,,0.00,WUHU216HW,2014-03-20 04:59:00,
2014-03-19 22:04:00,36.3,33.3,30.06,NW,315,0.0,0.0,89,0.00,,,0.00,WUHU216HW,2014-03-20 05:04:00,
2014-03-19 22:30:00,35.6,32.4,30.07,NNW,338,0.0,0.0,88,0.00,,,0.00,WUHU216HW,2014-03-20 05:30:00,
2014-03-19 22:35:00,35.6,32.4,30.07,NNW,338,0.0,0.0,88,0.00,,,0.00,WUHU216HW,2014-03-20 05:35:00,
2014-03-19 23:00:00,35.4,32.2,30.08,WNW,293,0.0,0.0,88,0.00,,,0.00,WUHU216HW,2014-03-20 06:00:00,
2014-03-19 23:05:00,35.4,32.2,30.08,WNW,293,0.0,0.0,88,0.00,,,0.00,WUHU216HW,2014-03-20 06:05:00,
2014-03-19 23:30:00,35.4,32.2,30.09,WNW,293,0.0,0.0,88,0.00,,,0.00,WUHU216HW,2014-03-20 06:30:00,
2014-03-19 23:35:00,35.4,32.2,30.09,WNW,293,0.0,0.0,88,0.00,,,0.00,WUHU216HW,2014-03-20 06:35:00,